Time;durP1;ratioP1;P1;durP2;ratioP2;P2;SDS_P1;SDS_P2;PMS_P1;PMS_P2;Temp;Humidity;BMP_temperature;BMP_pressure;BME280_temperature;BME280_humidity;BME280_pressure;Samples;Min_cycle;Max_cycle;Signal;HPM_P1;HPM_P2
2021/12/28 00:01:25;;;;;;;30.48;18.92;;;5.10;99.90;;;;;;5002381;28;20037;-93
2021/12/28 00:03:52;;;;;;;34.28;20.13;;;4.70;99.90;;;;;;5007958;28;20393;-92
2021/12/28 00:06:18;;;;;;;37.53;20.40;;;5.10;99.90;;;;;;5023110;28;20040;-92
2021/12/28 00:08:44;;;;;;;40.88;22.02;;;4.50;99.90;;;;;;5012593;28;20037;-93
2021/12/28 00:11:11;;;;;;;38.53;21.52;;;4.60;99.90;;;;;;5050769;28;20037;-94
2021/12/28 00:13:38;;;;;;;39.45;20.52;;;4.80;99.90;;;;;;5019148;28;20428;-95
2021/12/28 00:18:33;;;;;;;32.40;20.25;;;4.70;99.90;;;;;;5036345;28;20099;-92
2021/12/28 00:21:01;;;;;;;41.90;20.45;;;5.50;99.90;;;;;;5035932;28;20456;-94
2021/12/28 00:23:32;;;;;;;40.15;22.58;;;4.90;99.90;;;;;;5029485;28;20103;-93
2021/12/28 00:25:59;;;;;;;40.97;21.42;;;5.40;99.90;;;;;;5026403;28;20061;-92
2021/12/28 00:28:25;;;;;;;41.38;21.25;;;4.90;99.90;;;;;;5032525;28;20478;-93
2021/12/28 00:30:53;;;;;;;38.78;21.98;;;6.00;99.90;;;;;;5025310;28;20088;-92
2021/12/28 00:33:20;;;;;;;38.13;21.38;;;5.00;99.90;;;;;;5024564;28;20121;-93
2021/12/28 00:35:46;;;;;;;35.05;19.30;;;5.20;99.90;;;;;;5019299;28;20041;-93
2021/12/28 00:38:18;;;;;;;33.38;20.33;;;6.10;99.90;;;;;;5036154;28;20135;-92
2021/12/28 00:40:44;;;;;;;39.63;22.97;;;5.40;99.90;;;;;;5025838;28;20041;-93
2021/12/28 00:43:09;;;;;;;42.53;21.33;;;5.90;99.90;;;;;;5012765;28;20304;-93
2021/12/28 00:45:35;;;;;;;34.70;20.95;;;5.10;99.90;;;;;;5007206;28;20040;-93
2021/12/28 00:48:01;;;;;;;42.08;21.52;;;5.10;99.90;;;;;;5020350;28;20029;-94
2021/12/28 00:50:28;;;;;;;38.05;21.35;;;5.70;99.90;;;;;;5008028;28;20036;-92
2021/12/28 00:52:55;;;;;;;46.72;24.60;;;5.10;99.90;;;;;;5026913;28;20091;-94
2021/12/28 00:55:21;;;;;;;48.17;24.95;;;5.10;99.90;;;;;;5053260;28;20041;-94
2021/12/28 00:57:47;;;;;;;48.03;25.55;;;6.00;99.90;;;;;;5003944;28;20478;-93
2021/12/28 01:00:16;;;;;;;46.70;25.38;;;5.10;99.90;;;;;;5007020;28;20095;-93
2021/12/28 01:02:42;;;;;;;52.15;28.08;;;5.10;99.90;;;;;;5036346;28;20037;-93
2021/12/28 01:05:09;;;;;;;56.03;26.77;;;5.10;99.90;;;;;;5017080;28;20090;-93
2021/12/28 01:07:35;;;;;;;56.65;27.08;;;5.10;99.90;;;;;;5035796;28;20085;-93
2021/12/28 01:10:03;;;;;;;58.78;29.25;;;5.10;99.90;;;;;;5015073;28;20103;-94
2021/12/28 01:12:29;;;;;;;51.47;27.67;;;5.20;99.90;;;;;;5008626;28;20052;-93
2021/12/28 01:14:54;;;;;;;62.55;30.15;;;5.10;99.90;;;;;;5019258;28;20044;-93
2021/12/28 01:17:20;;;;;;;66.22;32.10;;;5.10;99.90;;;;;;5037178;28;20052;-94
2021/12/28 01:19:46;;;;;;;70.80;31.02;;;5.10;99.90;;;;;;5035318;28;20040;-95
2021/12/28 01:22:12;;;;;;;70.10;32.17;;;5.10;99.90;;;;;;5037182;28;20137;-94
2021/12/28 01:24:38;;;;;;;70.13;32.50;;;5.10;99.90;;;;;;5008491;28;20104;-94
2021/12/28 01:27:04;;;;;;;74.97;34.70;;;5.10;99.90;;;;;;5019174;28;20045;-92
2021/12/28 01:29:29;;;;;;;79.63;33.58;;;5.20;99.90;;;;;;5017550;28;20144;-94
2021/12/28 01:31:55;;;;;;;79.85;35.58;;;5.40;99.90;;;;;;4988773;28;20124;-95
2021/12/28 01:34:21;;;;;;;78.40;34.45;;;5.70;99.90;;;;;;5019157;28;20045;-94
2021/12/28 01:36:47;;;;;;;87.40;37.83;;;5.20;99.90;;;;;;5009678;28;20044;-94
2021/12/28 01:39:13;;;;;;;92.60;37.20;;;5.20;99.90;;;;;;5037029;28;20563;-93
2021/12/28 01:41:39;;;;;;;91.15;39.10;;;5.80;99.90;;;;;;5034004;28;20049;-94
2021/12/28 01:44:08;;;;;;;102.15;37.33;;;6.10;99.90;;;;;;5034432;28;20047;-95
2021/12/28 01:46:35;;;;;;;95.63;36.97;;;5.90;99.90;;;;;;5025609;28;20091;-94
2021/12/28 01:49:03;;;;;;;102.88;36.47;;;5.80;99.90;;;;;;5033840;28;20040;-94
2021/12/28 01:51:29;;;;;;;102.75;40.00;;;5.70;99.90;;;;;;5033997;28;20083;-93
2021/12/28 01:53:57;;;;;;;108.07;40.47;;;5.70;99.90;;;;;;5033355;28;20052;-93
2021/12/28 01:56:26;;;;;;;104.50;40.47;;;5.30;99.90;;;;;;5033060;28;20040;-94
2021/12/28 01:58:53;;;;;;;120.97;40.22;;;5.30;99.90;;;;;;5034381;28;20540;-93
2021/12/28 02:01:19;;;;;;;115.05;38.80;;;5.90;99.90;;;;;;5007103;28;20044;-94
2021/12/28 02:03:47;;;;;;;104.13;35.00;;;5.60;99.90;;;;;;5035670;28;20060;-93
2021/12/28 02:06:13;;;;;;;108.18;41.85;;;5.40;99.90;;;;;;5031912;28;20056;-93
2021/12/28 02:08:40;;;;;;;104.38;37.80;;;5.80;99.90;;;;;;5024573;28;20427;-94
2021/12/28 02:11:07;;;;;;;110.00;39.22;;;5.70;99.90;;;;;;5013554;28;20105;-93
2021/12/28 02:13:32;;;;;;;102.00;36.72;;;6.00;99.90;;;;;;5026084;28;20049;-94
2021/12/28 02:16:01;;;;;;;110.88;39.80;;;5.40;99.90;;;;;;5018823;28;20490;-93
2021/12/28 02:18:28;;;;;;;100.47;39.22;;;5.30;99.90;;;;;;5008980;28;20091;-94
2021/12/28 02:20:56;;;;;;;118.72;41.65;;;5.50;99.90;;;;;;5018022;28;20132;-92
2021/12/28 02:23:23;;;;;;;103.03;37.85;;;5.90;99.90;;;;;;5018794;28;20063;-94
2021/12/28 02:25:49;;;;;;;112.03;39.33;;;5.80;99.90;;;;;;5029404;28;20037;-94
2021/12/28 02:28:16;;;;;;;102.00;40.25;;;5.40;99.90;;;;;;5050070;28;20043;-94
2021/12/28 02:30:47;;;;;;;99.55;37.20;;;5.40;99.90;;;;;;5034009;28;20075;-93
2021/12/28 02:33:13;;;;;;;104.82;39.85;;;5.70;99.90;;;;;;5035279;28;20033;-94
2021/12/28 02:35:39;;;;;;;96.22;36.95;;;6.00;99.90;;;;;;4999575;28;20064;-95
2021/12/28 02:38:08;;;;;;;105.68;37.17;;;6.00;99.90;;;;;;5019958;28;20045;-94
2021/12/28 02:40:35;;;;;;;97.05;37.38;;;6.50;99.90;;;;;;5027924;28;20558;-94
2021/12/28 02:43:04;;;;;;;109.13;38.78;;;5.70;99.90;;;;;;5012027;28;20045;-93
2021/12/28 02:45:33;;;;;;;117.97;40.35;;;6.50;99.90;;;;;;5026000;28;20120;-93
2021/12/28 02:47:59;;;;;;;103.38;39.03;;;5.90;99.90;;;;;;5050500;28;20111;-93
2021/12/28 02:50:31;;;;;;;111.78;39.58;;;5.50;99.90;;;;;;5032651;28;20115;-93
2021/12/28 02:52:58;;;;;;;105.60;39.13;;;5.50;99.90;;;;;;5023980;28;20036;-93
2021/12/28 02:55:27;;;;;;;101.20;39.17;;;6.50;99.90;;;;;;5003331;28;20120;-94
2021/12/28 02:58:05;;;;;;;104.60;40.10;;;6.10;99.90;;;;;;5030393;28;20044;-94
2021/12/28 03:00:38;;;;;;;113.05;40.08;;;5.50;99.90;;;;;;5029131;28;20064;-94
2021/12/28 03:03:06;;;;;;;112.63;40.65;;;5.60;99.90;;;;;;5022242;28;20049;-94
2021/12/28 03:05:33;;;;;;;115.82;40.47;;;5.80;99.90;;;;;;5024234;28;20052;-93
2021/12/28 03:07:58;;;;;;;114.47;42.17;;;5.60;99.90;;;;;;5008107;28;20109;-94
2021/12/28 03:10:24;;;;;;;110.07;39.42;;;5.50;99.90;;;;;;5032337;28;20061;-93
2021/12/28 03:12:50;;;;;;;106.78;37.83;;;5.60;99.90;;;;;;5006941;28;20461;-94
2021/12/28 03:15:15;;;;;;;128.73;41.95;;;5.90;99.90;;;;;;5006917;28;20035;-94
2021/12/28 03:17:42;;;;;;;130.88;42.38;;;6.00;99.90;;;;;;5049803;28;20098;-94
2021/12/28 03:20:12;;;;;;;115.32;38.90;;;5.70;99.90;;;;;;5029397;28;20037;-94
2021/12/28 03:22:38;;;;;;;128.90;43.03;;;5.70;99.90;;;;;;5032917;28;20776;-94
2021/12/28 03:25:05;;;;;;;162.02;45.53;;;5.70;99.90;;;;;;5014705;28;20037;-93
2021/12/28 03:27:31;;;;;;;205.23;50.75;;;5.60;99.90;;;;;;5010252;28;20038;-93
2021/12/28 03:29:57;;;;;;;248.75;52.33;;;5.60;99.90;;;;;;5011372;28;20079;-93
2021/12/28 03:32:23;;;;;;;267.73;57.45;;;5.60;99.90;;;;;;5019856;28;20415;-92
2021/12/28 03:34:48;;;;;;;378.58;64.50;;;5.60;99.90;;;;;;5019155;28;20049;-92
2021/12/28 03:37:14;;;;;;;358.70;59.08;;;5.60;99.90;;;;;;5003405;28;20044;-94
2021/12/28 03:39:40;;;;;;;320.48;56.53;;;6.00;99.90;;;;;;5019694;28;20116;-93
2021/12/28 03:42:06;;;;;;;460.38;73.25;;;5.60;99.90;;;;;;5010242;28;20044;-93
2021/12/28 03:44:32;;;;;;;440.33;67.03;;;5.60;99.90;;;;;;5004111;28;20041;-93
2021/12/28 03:46:57;;;;;;;385.08;62.13;;;5.60;99.90;;;;;;5039413;28;20032;-93
2021/12/28 03:49:23;;;;;;;394.55;62.42;;;5.50;99.90;;;;;;5039297;28;20583;-93
2021/12/28 03:51:49;;;;;;;356.23;59.05;;;5.50;99.90;;;;;;5010697;28;20037;-94
2021/12/28 03:54:15;;;;;;;431.55;67.32;;;5.80;99.90;;;;;;5013262;28;20045;-93
2021/12/28 03:56:40;;;;;;;350.73;58.65;;;6.40;99.90;;;;;;5019584;28;21892;-93
2021/12/28 03:59:06;;;;;;;297.90;54.40;;;5.60;99.90;;;;;;5017266;28;20111;-93
2021/12/28 04:01:32;;;;;;;274.25;46.63;;;6.60;99.90;;;;;;5010801;28;20139;-93
2021/12/28 04:03:58;;;;;;;289.83;51.67;;;6.20;99.90;;;;;;5024790;28;20041;-94
2021/12/28 04:06:24;;;;;;;488.10;70.03;;;5.40;99.90;;;;;;5040150;28;20097;-94
2021/12/28 04:08:50;;;;;;;455.70;70.85;;;5.30;99.90;;;;;;5034499;28;20033;-94
2021/12/28 04:11:25;;;;;;;341.30;53.40;;;6.40;99.90;;;;;;5040201;28;20177;-94
2021/12/28 04:13:54;;;;;;;389.40;57.88;;;5.30;99.90;;;;;;5040940;28;20069;-94
2021/12/28 04:16:21;;;;;;;541.17;72.47;;;5.20;99.90;;;;;;5039784;28;20028;-93
2021/12/28 04:18:47;;;;;;;464.42;67.68;;;5.20;99.90;;;;;;5006508;28;20037;-94
2021/12/28 04:21:13;;;;;;;442.53;62.63;;;5.50;99.90;;;;;;5016266;28;20083;-93
2021/12/28 04:23:39;;;;;;;355.33;57.17;;;5.00;99.90;;;;;;5014731;28;20025;-93
2021/12/28 04:26:06;;;;;;;333.25;56.42;;;6.00;99.90;;;;;;5022333;28;20037;-93
2021/12/28 04:28:32;;;;;;;413.63;59.42;;;5.00;99.90;;;;;;5038758;28;20060;-94
2021/12/28 04:30:57;;;;;;;295.98;52.47;;;5.40;99.90;;;;;;5020541;28;20406;-93
2021/12/28 04:33:23;;;;;;;359.30;56.63;;;5.60;99.90;;;;;;5038961;28;20048;-93
2021/12/28 04:35:49;;;;;;;290.75;50.83;;;5.40;99.90;;;;;;5020486;28;20044;-93
2021/12/28 04:38:15;;;;;;;214.98;44.28;;;4.80;99.90;;;;;;5021371;28;20041;-93
2021/12/28 04:40:41;;;;;;;259.17;48.13;;;5.40;99.90;;;;;;5038922;28;20210;-94
2021/12/28 04:43:08;;;;;;;219.48;45.60;;;5.60;99.90;;;;;;5034689;28;20109;-94
2021/12/28 04:45:36;;;;;;;188.23;43.35;;;4.80;99.90;;;;;;5029202;28;20030;-92
2021/12/28 04:48:03;;;;;;;174.57;39.80;;;4.80;99.90;;;;;;5037794;28;20612;-94
2021/12/28 04:50:36;;;;;;;183.13;39.42;;;4.80;99.90;;;;;;5030724;28;20041;-93
2021/12/28 04:53:08;;;;;;;146.57;37.67;;;4.80;99.90;;;;;;5029229;28;20124;-93
2021/12/28 04:55:34;;;;;;;129.27;34.80;;;4.90;99.90;;;;;;5038286;28;20032;-93
2021/12/28 04:57:59;;;;;;;118.13;34.08;;;4.90;99.90;;;;;;5006387;28;20044;-94
2021/12/28 05:00:25;;;;;;;104.43;31.55;;;4.90;99.90;;;;;;5006730;28;20056;-93
2021/12/28 05:02:51;;;;;;;114.78;35.60;;;4.90;99.90;;;;;;5009458;28;20042;-92
2021/12/28 05:05:16;;;;;;;102.93;29.45;;;6.00;99.90;;;;;;5002936;28;20043;-92
2021/12/28 05:07:42;;;;;;;108.13;33.35;;;5.00;99.90;;;;;;5019596;28;20036;-93
2021/12/28 05:10:09;;;;;;;83.72;28.05;;;5.70;99.90;;;;;;5018791;28;20394;-91
2021/12/28 05:12:35;;;;;;;78.57;26.48;;;5.10;99.90;;;;;;5023933;28;20057;-91
2021/12/28 05:15:02;;;;;;;99.63;31.13;;;5.10;99.90;;;;;;5002578;28;20044;-93
2021/12/28 05:17:28;;;;;;;106.28;32.15;;;5.20;99.90;;;;;;5015339;28;20045;-92
2021/12/28 05:19:54;;;;;;;100.25;32.63;;;5.10;99.90;;;;;;5011425;28;20037;-93
2021/12/28 05:22:22;;;;;;;91.57;29.83;;;5.10;99.90;;;;;;5010284;28;20048;-93
2021/12/28 05:24:48;;;;;;;92.18;30.65;;;5.10;99.90;;;;;;5033380;28;20116;-93
2021/12/28 05:27:14;;;;;;;93.32;31.25;;;5.10;99.90;;;;;;5019472;28;20498;-93
2021/12/28 05:29:40;;;;;;;84.55;29.88;;;5.10;99.90;;;;;;5010867;28;20097;-93
2021/12/28 05:32:06;;;;;;;88.80;28.67;;;5.50;99.90;;;;;;5019917;28;20045;-92
2021/12/28 05:34:32;;;;;;;78.25;29.05;;;5.20;99.90;;;;;;5020308;28;20049;-94
2021/12/28 05:36:58;;;;;;;86.40;31.55;;;5.20;99.90;;;;;;5019786;28;20128;-93
2021/12/28 05:39:23;;;;;;;88.57;28.88;;;5.40;99.90;;;;;;5000513;28;20524;-92
2021/12/28 05:41:49;;;;;;;85.40;29.73;;;5.90;99.90;;;;;;5006704;28;20128;-93
2021/12/28 05:44:17;;;;;;;79.53;27.08;;;5.20;99.90;;;;;;5018424;28;20111;-93
2021/12/28 05:46:46;;;;;;;91.07;29.15;;;5.10;99.90;;;;;;5019342;28;20037;-92
2021/12/28 05:49:13;;;;;;;75.63;26.60;;;5.10;99.90;;;;;;5019851;28;20036;-93
2021/12/28 05:51:38;;;;;;;89.97;28.05;;;5.00;99.90;;;;;;5016667;28;20045;-92
2021/12/28 05:54:05;;;;;;;72.75;27.17;;;5.10;99.90;;;;;;4999455;28;20576;-93
2021/12/28 05:56:30;;;;;;;77.70;28.15;;;5.20;99.90;;;;;;5015612;28;20059;-93
2021/12/28 05:58:56;;;;;;;63.30;25.52;;;5.20;99.90;;;;;;5027748;28;20440;-93
2021/12/28 06:01:22;;;;;;;67.38;25.80;;;5.10;99.90;;;;;;5001519;28;20729;-92
2021/12/28 06:03:48;;;;;;;70.50;26.13;;;6.00;99.90;;;;;;5043456;28;20364;-94
2021/12/28 06:06:13;;;;;;;59.28;23.75;;;5.40;99.90;;;;;;5025689;28;20120;-93
2021/12/28 06:08:39;;;;;;;56.38;24.33;;;5.60;99.90;;;;;;5037590;28;20043;-93
2021/12/28 06:11:07;;;;;;;55.55;23.90;;;5.10;99.90;;;;;;5015853;28;20037;-92
2021/12/28 06:13:33;;;;;;;60.00;23.38;;;5.10;99.90;;;;;;5002743;28;20071;-93
2021/12/28 06:15:59;;;;;;;57.47;23.65;;;5.20;99.90;;;;;;5052125;28;20041;-92
2021/12/28 06:18:25;;;;;;;57.95;23.95;;;6.00;99.90;;;;;;5017190;28;20049;-93
2021/12/28 06:20:51;;;;;;;55.20;22.83;;;5.50;99.90;;;;;;5009861;28;20030;-92
2021/12/28 06:23:17;;;;;;;54.45;21.48;;;5.60;99.90;;;;;;5046075;28;20052;-93
2021/12/28 06:25:43;;;;;;;46.20;20.88;;;5.10;99.90;;;;;;5012505;28;20044;-92
2021/12/28 06:28:09;;;;;;;50.63;19.83;;;5.40;99.90;;;;;;5016370;28;20033;-93
2021/12/28 06:30:35;;;;;;;45.63;20.50;;;5.10;99.90;;;;;;5016115;28;20044;-92
2021/12/28 06:33:02;;;;;;;39.08;18.25;;;6.00;99.90;;;;;;5023663;28;20068;-92
2021/12/28 06:35:29;;;;;;;42.28;18.08;;;5.20;99.90;;;;;;5049495;28;20040;-92
2021/12/28 06:37:55;;;;;;;39.58;18.60;;;6.00;99.90;;;;;;5033696;28;20063;-92
2021/12/28 06:40:20;;;;;;;40.88;18.83;;;5.40;99.90;;;;;;5022634;28;20079;-93
2021/12/28 06:42:46;;;;;;;36.83;18.88;;;6.40;99.90;;;;;;5048858;28;20069;-92
2021/12/28 06:45:12;;;;;;;39.10;16.65;;;5.20;99.90;;;;;;5010918;28;20037;-92
2021/12/28 06:47:38;;;;;;;32.38;17.20;;;5.20;99.90;;;;;;5010465;28;20040;-92
2021/12/28 06:50:05;;;;;;;37.60;16.70;;;5.70;99.90;;;;;;5023163;28;20095;-93
2021/12/28 06:52:33;;;;;;;39.78;18.05;;;5.20;99.90;;;;;;5036650;28;20047;-95
2021/12/28 06:54:59;;;;;;;40.00;18.25;;;5.50;99.90;;;;;;5004385;28;20132;-95
2021/12/28 07:00:02;;;;;;;32.85;17.05;;;5.20;99.90;;;;;;5065988;28;20028;-96
2021/12/28 07:02:29;;;;;;;35.70;17.45;;;5.20;99.90;;;;;;5036814;28;20045;-96
2021/12/28 07:04:55;;;;;;;32.25;15.82;;;6.10;99.90;;;;;;4985792;28;20068;-96
2021/12/28 07:07:21;;;;;;;26.58;15.15;;;6.10;99.90;;;;;;5007129;28;20041;-96
2021/12/28 07:09:47;;;;;;;30.40;15.80;;;5.20;99.90;;;;;;4998114;28;20041;-96
2021/12/28 07:12:13;;;;;;;38.13;16.27;;;5.10;99.90;;;;;;5032971;28;20045;-95
2021/12/28 07:14:39;;;;;;;30.00;15.32;;;6.20;99.90;;;;;;5023296;28;20037;-95
2021/12/28 07:17:05;;;;;;;26.92;15.15;;;6.10;99.90;;;;;;4995899;28;20037;-95
2021/12/28 07:19:31;;;;;;;26.35;12.30;;;5.10;99.90;;;;;;5006122;28;20065;-95
2021/12/28 07:21:57;;;;;;;29.40;14.07;;;5.20;99.90;;;;;;5013710;28;20045;-95
2021/12/28 07:24:23;;;;;;;29.17;13.70;;;5.50;99.90;;;;;;5013956;28;20052;-94
2021/12/28 07:26:49;;;;;;;29.45;14.52;;;5.40;99.90;;;;;;4998534;28;20120;-95
2021/12/28 07:29:15;;;;;;;33.80;13.25;;;5.40;99.90;;;;;;5015382;28;20045;-95
2021/12/28 07:31:41;;;;;;;28.75;13.65;;;5.10;99.90;;;;;;4996925;28;20124;-95
2021/12/28 07:34:07;;;;;;;26.25;13.98;;;5.80;99.90;;;;;;5012122;28;20041;-94
2021/12/28 07:36:33;;;;;;;26.02;12.50;;;5.10;99.90;;;;;;5000475;28;20493;-94
2021/12/28 07:39:00;;;;;;;25.00;13.45;;;5.90;99.90;;;;;;4984939;28;20431;-95
2021/12/28 07:41:25;;;;;;;25.05;14.30;;;5.10;99.90;;;;;;5002630;28;20041;-94
2021/12/28 07:43:51;;;;;;;26.40;12.13;;;6.00;99.90;;;;;;5015941;28;20375;-95
2021/12/28 07:46:17;;;;;;;30.60;11.88;;;5.50;99.90;;;;;;5032946;28;20499;-94
2021/12/28 07:48:43;;;;;;;26.83;11.48;;;5.20;99.90;;;;;;4992328;28;20033;-93
2021/12/28 07:51:09;;;;;;;24.35;11.98;;;5.20;99.90;;;;;;4984926;28;20394;-95
2021/12/28 07:53:35;;;;;;;22.98;12.23;;;5.20;99.90;;;;;;5006238;28;20091;-93
2021/12/28 07:56:02;;;;;;;23.55;11.55;;;5.20;99.90;;;;;;5016789;28;20511;-94
2021/12/28 07:58:28;;;;;;;26.25;11.63;;;5.20;99.90;;;;;;5000603;28;20053;-95
2021/12/28 08:00:55;;;;;;;23.77;11.98;;;5.20;99.90;;;;;;5007698;28;20041;-95
2021/12/28 08:03:22;;;;;;;27.50;10.00;;;5.90;99.90;;;;;;5001593;28;20481;-95
2021/12/28 08:05:49;;;;;;;28.65;10.93;;;5.60;99.90;;;;;;4993731;28;20037;-95
2021/12/28 08:08:15;;;;;;;25.27;10.55;;;5.50;99.90;;;;;;4992593;28;20047;-94
2021/12/28 08:10:41;;;;;;;19.90;10.25;;;6.10;99.90;;;;;;5013958;28;20041;-96
2021/12/28 08:13:07;;;;;;;19.33;10.55;;;5.30;99.90;;;;;;5001865;28;20191;-94
2021/12/28 08:15:33;;;;;;;26.67;10.48;;;5.30;99.90;;;;;;5024356;28;20105;-94
2021/12/28 08:17:59;;;;;;;22.92;10.75;;;5.30;99.90;;;;;;5007013;28;20041;-94
2021/12/28 08:20:25;;;;;;;22.95;9.95;;;5.40;99.90;;;;;;4994359;28;20807;-96
2021/12/28 08:22:51;;;;;;;26.17;11.02;;;5.80;99.90;;;;;;4998466;28;20042;-95
2021/12/28 08:25:19;;;;;;;22.88;10.52;;;5.40;99.90;;;;;;4998455;28;20042;-94
2021/12/28 08:27:46;;;;;;;23.15;9.98;;;6.60;99.90;;;;;;5007704;28;20098;-94
2021/12/28 08:30:14;;;;;;;19.33;7.47;;;5.50;99.90;;;;;;5000641;28;20037;-95
2021/12/28 08:32:40;;;;;;;21.00;9.02;;;5.70;99.90;;;;;;5018445;28;20080;-95
2021/12/28 08:35:07;;;;;;;23.05;10.25;;;5.90;99.90;;;;;;5002826;28;20797;-95
2021/12/28 08:37:33;;;;;;;26.17;10.00;;;5.40;99.90;;;;;;4989113;28;20040;-95
2021/12/28 08:39:59;;;;;;;25.48;10.13;;;6.10;99.90;;;;;;5002800;28;20090;-94
2021/12/28 08:42:25;;;;;;;25.02;9.48;;;6.00;99.90;;;;;;5013998;28;20121;-96
2021/12/28 08:44:51;;;;;;;22.13;9.80;;;5.40;99.90;;;;;;5028158;28;20038;-96
2021/12/28 08:47:18;;;;;;;21.25;9.18;;;5.40;99.90;;;;;;5005165;28;20049;-95
2021/12/28 08:49:44;;;;;;;28.42;10.77;;;5.40;99.90;;;;;;5015979;28;20040;-96
2021/12/28 08:52:10;;;;;;;21.73;8.60;;;5.70;99.90;;;;;;4987864;28;20037;-93
2021/12/28 08:54:36;;;;;;;30.73;8.73;;;6.40;99.90;;;;;;5000210;28;20120;-96
2021/12/28 08:57:02;;;;;;;26.00;10.30;;;5.30;99.90;;;;;;5010976;28;20127;-93
2021/12/28 08:59:28;;;;;;;27.58;9.40;;;6.20;99.90;;;;;;5023967;28;20056;-96
2021/12/28 09:01:57;;;;;;;20.67;9.50;;;5.50;99.90;;;;;;5004077;28;20073;-96
2021/12/28 09:04:23;;;;;;;20.67;8.48;;;5.30;99.90;;;;;;5016751;28;20033;-96
2021/12/28 09:06:49;;;;;;;26.98;8.88;;;5.40;99.90;;;;;;5009408;28;20039;-95
2021/12/28 09:09:15;;;;;;;22.30;9.68;;;5.40;99.90;;;;;;5005879;28;20037;-93
2021/12/28 09:11:42;;;;;;;29.10;7.60;;;5.50;99.90;;;;;;5037330;28;20040;-94
2021/12/28 09:14:08;;;;;;;24.55;8.57;;;5.50;99.90;;;;;;5007007;28;20113;-96
2021/12/28 09:16:37;;;;;;;19.40;8.73;;;6.60;99.90;;;;;;5014119;28;20147;-95
2021/12/28 09:19:03;;;;;;;26.95;8.27;;;5.90;99.90;;;;;;5030507;28;20477;-96
2021/12/28 09:21:30;;;;;;;25.55;8.07;;;6.20;99.90;;;;;;5018841;28;20097;-95
2021/12/28 09:23:55;;;;;;;17.27;6.85;;;5.80;99.90;;;;;;5023115;28;20032;-96
2021/12/28 09:26:21;;;;;;;16.88;6.38;;;7.60;99.90;;;;;;5036350;28;20044;-96
2021/12/28 09:28:47;;;;;;;20.20;6.88;;;6.50;99.90;;;;;;5000757;28;20041;-96
2021/12/28 09:31:14;;;;;;;15.18;7.07;;;6.60;99.90;;;;;;4993843;28;20150;-95
2021/12/28 09:33:40;;;;;;;20.52;6.85;;;6.60;99.90;;;;;;4984973;28;20068;-95
2021/12/28 09:36:07;;;;;;;25.25;6.30;;;6.50;99.90;;;;;;5032212;28;20133;-93
2021/12/28 09:38:34;;;;;;;16.90;6.45;;;6.40;99.90;;;;;;5013446;28;20071;-94
2021/12/28 09:41:00;;;;;;;11.60;6.53;;;6.40;99.90;;;;;;4999514;28;20037;-94
2021/12/28 09:43:25;;;;;;;20.40;6.78;;;6.30;99.90;;;;;;4969430;28;20151;-94
2021/12/28 09:45:51;;;;;;;19.60;6.82;;;6.50;99.90;;;;;;5001152;28;20040;-94
2021/12/28 09:48:17;;;;;;;15.85;6.93;;;6.60;99.90;;;;;;5020640;28;20037;-93
2021/12/28 09:50:43;;;;;;;17.85;6.10;;;6.80;99.90;;;;;;4989623;28;20041;-95
2021/12/28 09:53:13;;;;;;;15.52;5.85;;;6.50;99.90;;;;;;5002740;28;20045;-94
2021/12/28 09:55:40;;;;;;;19.25;6.78;;;6.50;99.90;;;;;;5009541;28;20052;-95
2021/12/28 09:58:05;;;;;;;16.70;6.00;;;7.40;99.90;;;;;;5022591;28;20045;-94
2021/12/28 10:00:32;;;;;;;18.77;6.97;;;6.60;99.90;;;;;;5005115;28;20045;-93
2021/12/28 10:02:57;;;;;;;21.75;6.82;;;6.60;99.90;;;;;;4982528;28;20048;-91
2021/12/28 10:05:26;;;;;;;19.55;6.95;;;6.60;99.90;;;;;;4989154;28;20044;-89
2021/12/28 10:07:58;;;;;;;15.85;7.15;;;6.60;99.90;;;;;;5007073;28;20056;-90
2021/12/28 10:10:27;;;;;;;14.32;7.45;;;6.60;99.90;;;;;;4997712;28;20025;-90
2021/12/28 10:12:56;;;;;;;20.35;6.57;;;6.80;99.90;;;;;;4999423;28;20103;-90
2021/12/28 10:15:30;;;;;;;11.32;6.15;;;6.60;99.90;;;;;;5002714;28;20041;-89
2021/12/28 10:17:58;;;;;;;28.02;6.85;;;6.60;99.90;;;;;;4999301;28;20033;-90
2021/12/28 10:20:37;;;;;;;16.40;6.85;;;6.70;99.90;;;;;;4997469;28;20038;-89
2021/12/28 10:23:10;;;;;;;17.77;6.68;;;6.70;99.90;;;;;;5016036;28;20042;-90
2021/12/28 10:25:42;;;;;;;15.65;5.85;;;7.40;99.90;;;;;;5006395;28;20045;-90
2021/12/28 10:28:23;;;;;;;18.58;7.75;;;7.40;99.90;;;;;;4997403;28;20516;-92
2021/12/28 10:31:17;;;;;;;19.20;6.68;;;7.20;99.90;;;;;;5021292;28;20036;-92
2021/12/28 10:33:42;;;;;;;12.57;5.65;;;6.90;99.90;;;;;;4997511;28;20413;-89
2021/12/28 10:36:13;;;;;;;17.17;6.20;;;6.90;99.90;;;;;;4999366;28;20045;-88
2021/12/28 10:38:44;;;;;;;26.65;7.32;;;7.60;99.90;;;;;;5053787;28;20071;-88
2021/12/28 10:41:14;;;;;;;15.38;6.78;;;6.90;99.90;;;;;;4999094;28;20045;-89
2021/12/28 10:43:45;;;;;;;20.33;7.28;;;6.80;99.90;;;;;;4997265;28;20061;-88
2021/12/28 10:46:18;;;;;;;12.57;7.53;;;6.80;99.90;;;;;;5017243;28;20045;-88
2021/12/28 10:48:48;;;;;;;14.70;6.30;;;6.80;99.90;;;;;;4994769;28;20033;-89
2021/12/28 10:51:21;;;;;;;18.60;7.95;;;6.90;99.90;;;;;;4993092;28;20204;-89
2021/12/28 10:56:26;;;;;;;19.88;6.88;;;7.00;99.90;;;;;;5018479;28;20053;-89
2021/12/28 10:58:52;;;;;;;14.02;6.65;;;7.40;99.90;;;;;;5004488;28;20102;-89
2021/12/28 11:01:25;;;;;;;17.88;7.38;;;7.00;99.90;;;;;;5001779;28;20582;-88
2021/12/28 11:03:57;;;;;;;16.85;7.07;;;7.20;99.90;;;;;;5004870;28;20494;-88
2021/12/28 11:06:28;;;;;;;14.67;6.70;;;7.00;99.90;;;;;;5017031;28;20673;-89
2021/12/28 11:08:58;;;;;;;19.20;7.63;;;7.00;99.90;;;;;;5034070;28;20033;-88
2021/12/28 11:11:25;;;;;;;14.65;6.22;;;7.00;99.90;;;;;;5005105;28;20506;-87
2021/12/28 11:13:56;;;;;;;19.20;6.60;;;7.10;99.90;;;;;;5031220;28;20037;-88
2021/12/28 11:16:26;;;;;;;16.48;6.72;;;7.10;99.90;;;;;;4995390;28;20033;-88
2021/12/28 11:18:54;;;;;;;21.17;7.05;;;7.50;99.90;;;;;;4989857;28;20044;-88
2021/12/28 11:21:25;;;;;;;15.88;7.60;;;7.10;99.90;;;;;;5019020;28;20983;-88
2021/12/28 11:23:54;;;;;;;21.67;7.22;;;7.10;99.90;;;;;;5011421;28;20072;-91
2021/12/28 11:26:26;;;;;;;19.48;7.72;;;7.70;99.90;;;;;;4998471;28;20075;-88
2021/12/28 11:29:06;;;;;;;20.97;7.17;;;7.20;99.90;;;;;;5014645;28;20538;-87
2021/12/28 11:31:45;;;;;;;18.38;7.00;;;7.20;99.90;;;;;;5002983;28;20287;-89
2021/12/28 11:34:13;;;;;;;12.77;7.00;;;7.20;99.90;;;;;;5001826;28;20032;-87
2021/12/28 11:36:46;;;;;;;24.40;9.70;;;7.20;99.90;;;;;;5017706;28;20064;-92
2021/12/28 11:39:17;;;;;;;19.75;8.00;;;7.10;99.90;;;;;;5000658;28;20127;-88
2021/12/28 11:41:45;;;;;;;18.55;7.65;;;7.50;99.90;;;;;;5048181;28;20124;-88
2021/12/28 11:44:12;;;;;;;15.45;8.05;;;7.90;99.90;;;;;;4999813;28;20044;-89
2021/12/28 11:46:39;;;;;;;21.05;8.30;;;7.10;99.90;;;;;;4987566;28;20048;-91
2021/12/28 11:49:06;;;;;;;21.17;9.63;;;7.10;99.90;;;;;;5033897;28;20037;-93
2021/12/28 11:51:33;;;;;;;23.98;10.50;;;7.40;99.90;;;;;;5000622;28;20510;-90
2021/12/28 11:54:03;;;;;;;21.65;9.55;;;7.10;99.90;;;;;;5002419;28;20029;-91
2021/12/28 11:56:32;;;;;;;22.88;9.80;;;7.10;99.90;;;;;;5000797;28;20045;-91
2021/12/28 11:59:04;;;;;;;21.30;9.57;;;7.10;99.90;;;;;;5014948;28;20053;-93
2021/12/28 12:01:52;;;;;;;18.63;9.95;;;7.10;99.90;;;;;;5028743;28;20038;-89
2021/12/28 12:04:30;;;;;;;22.67;10.30;;;7.10;99.90;;;;;;5005977;28;20135;-87
2021/12/28 12:07:14;;;;;;;21.17;10.77;;;7.30;99.90;;;;;;5022795;28;20044;-88
2021/12/28 12:09:49;;;;;;;25.10;11.57;;;7.10;99.90;;;;;;5004720;28;20494;-89
2021/12/28 12:12:17;;;;;;;21.48;10.70;;;7.10;99.90;;;;;;5023383;28;20610;-89
2021/12/28 12:14:56;;;;;;;28.10;11.68;;;7.10;99.90;;;;;;5023780;28;20409;-90
2021/12/28 12:17:28;;;;;;;21.92;11.90;;;7.10;99.90;;;;;;5022089;28;20114;-89
2021/12/28 12:19:59;;;;;;;16.77;10.60;;;7.40;99.90;;;;;;5002158;28;20106;-89
2021/12/28 12:22:34;;;;;;;23.92;11.60;;;7.10;99.90;;;;;;5020033;28;20299;-89
2021/12/28 12:25:09;;;;;;;24.30;13.30;;;7.10;99.90;;;;;;5022062;28;20037;-91
2021/12/28 12:27:53;;;;;;;30.35;13.93;;;7.20;99.90;;;;;;5005599;28;20040;-92
2021/12/28 12:30:18;;;;;;;22.15;13.15;;;7.20;99.90;;;;;;5003529;28;20044;-91
2021/12/28 12:33:05;;;;;;;22.58;13.38;;;7.20;99.90;;;;;;5002154;28;20045;-92
2021/12/28 12:35:48;;;;;;;20.90;10.00;;;7.20;99.90;;;;;;5012005;28;20041;-92
2021/12/28 12:38:14;;;;;;;20.83;13.77;;;7.60;99.90;;;;;;5011609;28;20033;-93
2021/12/28 12:41:07;;;;;;;25.10;14.60;;;7.60;99.90;;;;;;5015476;28;20090;-91
2021/12/28 12:43:38;;;;;;;26.05;13.82;;;7.20;99.90;;;;;;5012965;28;20029;-91
2021/12/28 12:46:25;;;;;;;25.13;14.40;;;7.20;99.90;;;;;;5009397;28;20111;-91